sensor_id;sensor_type;location;lat;lon;timestamp;P1;durP1;ratioP1;P2;durP2;ratioP2
42110;SDS011;27766;52.174;5.456;2023-02-22T00:00:53;28.58;;;18.00;;
42110;SDS011;27766;52.174;5.456;2023-02-22T00:03:26;28.83;;;17.52;;
42110;SDS011;27766;52.174;5.456;2023-02-22T00:05:56;23.67;;;16.52;;
42110;SDS011;27766;52.174;5.456;2023-02-22T00:08:26;23.60;;;15.57;;
42110;SDS011;27766;52.174;5.456;2023-02-22T00:10:58;31.13;;;16.38;;
42110;SDS011;27766;52.174;5.456;2023-02-22T00:13:30;34.72;;;17.48;;
42110;SDS011;27766;52.174;5.456;2023-02-22T00:15:57;28.35;;;16.25;;
42110;SDS011;27766;52.174;5.456;2023-02-22T00:18:28;25.17;;;16.27;;
42110;SDS011;27766;52.174;5.456;2023-02-22T00:20:56;22.33;;;14.27;;
42110;SDS011;27766;52.174;5.456;2023-02-22T00:23:28;24.58;;;15.68;;
42110;SDS011;27766;52.174;5.456;2023-02-22T00:25:57;22.70;;;15.05;;
42110;SDS011;27766;52.174;5.456;2023-02-22T00:28:25;28.15;;;16.83;;
42110;SDS011;27766;52.174;5.456;2023-02-22T00:30:53;27.33;;;15.20;;
42110;SDS011;27766;52.174;5.456;2023-02-22T00:33:21;23.33;;;15.18;;
42110;SDS011;27766;52.174;5.456;2023-02-22T00:35:48;22.23;;;15.50;;
42110;SDS011;27766;52.174;5.456;2023-02-22T00:38:17;27.85;;;17.05;;
42110;SDS011;27766;52.174;5.456;2023-02-22T00:40:44;25.75;;;16.13;;
42110;SDS011;27766;52.174;5.456;2023-02-22T00:43:12;31.35;;;15.95;;
42110;SDS011;27766;52.174;5.456;2023-02-22T00:45:39;25.13;;;15.95;;
42110;SDS011;27766;52.174;5.456;2023-02-22T00:48:07;23.40;;;14.98;;
42110;SDS011;27766;52.174;5.456;2023-02-22T00:50:35;19.00;;;13.80;;
42110;SDS011;27766;52.174;5.456;2023-02-22T00:53:03;23.83;;;15.10;;
42110;SDS011;27766;52.174;5.456;2023-02-22T00:55:32;21.30;;;13.55;;
42110;SDS011;27766;52.174;5.456;2023-02-22T00:58:02;22.85;;;14.63;;
42110;SDS011;27766;52.174;5.456;2023-02-22T01:00:32;25.80;;;15.30;;
42110;SDS011;27766;52.174;5.456;2023-02-22T01:03:03;23.25;;;14.40;;
42110;SDS011;27766;52.174;5.456;2023-02-22T01:05:32;25.75;;;15.40;;
42110;SDS011;27766;52.174;5.456;2023-02-22T01:08:00;24.20;;;14.73;;
42110;SDS011;27766;52.174;5.456;2023-02-22T01:10:28;26.65;;;16.30;;
42110;SDS011;27766;52.174;5.456;2023-02-22T01:12:57;29.80;;;15.32;;
42110;SDS011;27766;52.174;5.456;2023-02-22T01:15:26;26.95;;;15.40;;
42110;SDS011;27766;52.174;5.456;2023-02-22T01:17:57;25.33;;;15.00;;
42110;SDS011;27766;52.174;5.456;2023-02-22T01:20:25;21.20;;;14.48;;
42110;SDS011;27766;52.174;5.456;2023-02-22T01:22:56;26.35;;;16.33;;
42110;SDS011;27766;52.174;5.456;2023-02-22T01:25:28;24.08;;;15.32;;
42110;SDS011;27766;52.174;5.456;2023-02-22T01:27:57;25.95;;;15.02;;
42110;SDS011;27766;52.174;5.456;2023-02-22T01:30:30;24.58;;;15.10;;
42110;SDS011;27766;52.174;5.456;2023-02-22T01:33:01;25.58;;;15.18;;
42110;SDS011;27766;52.174;5.456;2023-02-22T01:35:30;26.52;;;14.63;;
42110;SDS011;27766;52.174;5.456;2023-02-22T01:37:58;20.25;;;14.23;;
42110;SDS011;27766;52.174;5.456;2023-02-22T01:40:29;29.13;;;15.98;;
42110;SDS011;27766;52.174;5.456;2023-02-22T01:42:59;25.60;;;14.52;;
42110;SDS011;27766;52.174;5.456;2023-02-22T01:47:57;22.27;;;15.27;;
42110;SDS011;27766;52.174;5.456;2023-02-22T01:50:36;23.65;;;15.63;;
42110;SDS011;27766;52.174;5.456;2023-02-22T01:53:36;24.10;;;14.00;;
42110;SDS011;27766;52.174;5.456;2023-02-22T01:56:07;23.02;;;15.02;;
42110;SDS011;27766;52.174;5.456;2023-02-22T01:58:35;21.83;;;14.55;;
42110;SDS011;27766;52.174;5.456;2023-02-22T02:01:06;22.40;;;15.13;;
42110;SDS011;27766;52.174;5.456;2023-02-22T02:03:35;30.48;;;15.63;;
42110;SDS011;27766;52.174;5.456;2023-02-22T02:06:07;24.77;;;15.82;;
42110;SDS011;27766;52.174;5.456;2023-02-22T02:11:30;24.67;;;16.15;;
42110;SDS011;27766;52.174;5.456;2023-02-22T02:13:58;26.45;;;15.73;;
42110;SDS011;27766;52.174;5.456;2023-02-22T02:16:28;21.23;;;14.35;;
42110;SDS011;27766;52.174;5.456;2023-02-22T02:19:07;26.73;;;16.15;;
42110;SDS011;27766;52.174;5.456;2023-02-22T02:21:53;23.77;;;15.00;;
42110;SDS011;27766;52.174;5.456;2023-02-22T02:33:41;22.38;;;14.93;;
42110;SDS011;27766;52.174;5.456;2023-02-22T02:38:33;26.02;;;15.40;;
42110;SDS011;27766;52.174;5.456;2023-02-22T02:41:15;28.58;;;15.73;;
42110;SDS011;27766;52.174;5.456;2023-02-22T02:43:52;27.42;;;15.25;;
42110;SDS011;27766;52.174;5.456;2023-02-22T02:49:06;24.60;;;14.27;;
42110;SDS011;27766;52.174;5.456;2023-02-22T02:51:39;27.25;;;16.58;;
42110;SDS011;27766;52.174;5.456;2023-02-22T02:54:10;24.40;;;16.50;;
42110;SDS011;27766;52.174;5.456;2023-02-22T02:56:39;22.00;;;14.55;;
42110;SDS011;27766;52.174;5.456;2023-02-22T02:59:28;25.25;;;15.82;;
42110;SDS011;27766;52.174;5.456;2023-02-22T03:02:06;24.15;;;15.88;;
42110;SDS011;27766;52.174;5.456;2023-02-22T03:07:18;23.70;;;14.82;;
42110;SDS011;27766;52.174;5.456;2023-02-22T03:18:15;30.90;;;17.75;;
42110;SDS011;27766;52.174;5.456;2023-02-22T03:20:52;30.77;;;16.98;;
42110;SDS011;27766;52.174;5.456;2023-02-22T03:23:28;28.83;;;17.27;;
42110;SDS011;27766;52.174;5.456;2023-02-22T03:26:03;27.60;;;17.90;;
42110;SDS011;27766;52.174;5.456;2023-02-22T03:28:37;30.25;;;18.08;;
42110;SDS011;27766;52.174;5.456;2023-02-22T03:31:12;34.97;;;17.80;;
42110;SDS011;27766;52.174;5.456;2023-02-22T03:33:48;25.20;;;17.50;;
42110;SDS011;27766;52.174;5.456;2023-02-22T03:36:30;29.70;;;17.33;;
42110;SDS011;27766;52.174;5.456;2023-02-22T03:39:00;30.50;;;18.20;;
42110;SDS011;27766;52.174;5.456;2023-02-22T03:41:29;28.65;;;19.15;;
42110;SDS011;27766;52.174;5.456;2023-02-22T03:44:07;28.42;;;19.05;;
42110;SDS011;27766;52.174;5.456;2023-02-22T03:46:38;30.00;;;18.83;;
42110;SDS011;27766;52.174;5.456;2023-02-22T03:52:11;34.42;;;19.90;;
42110;SDS011;27766;52.174;5.456;2023-02-22T03:54:38;28.90;;;18.58;;
42110;SDS011;27766;52.174;5.456;2023-02-22T03:57:11;36.80;;;19.63;;
42110;SDS011;27766;52.174;5.456;2023-02-22T03:59:43;40.15;;;19.45;;
42110;SDS011;27766;52.174;5.456;2023-02-22T04:02:11;28.23;;;18.20;;
42110;SDS011;27766;52.174;5.456;2023-02-22T04:04:38;41.22;;;21.83;;
42110;SDS011;27766;52.174;5.456;2023-02-22T04:07:05;34.75;;;20.17;;
42110;SDS011;27766;52.174;5.456;2023-02-22T04:09:32;32.17;;;19.38;;
42110;SDS011;27766;52.174;5.456;2023-02-22T04:12:00;31.10;;;19.20;;
42110;SDS011;27766;52.174;5.456;2023-02-22T04:14:27;30.98;;;17.55;;
42110;SDS011;27766;52.174;5.456;2023-02-22T04:16:55;35.65;;;20.92;;
42110;SDS011;27766;52.174;5.456;2023-02-22T04:19:24;36.22;;;20.88;;
42110;SDS011;27766;52.174;5.456;2023-02-22T04:21:51;32.53;;;20.08;;
42110;SDS011;27766;52.174;5.456;2023-02-22T04:24:18;32.97;;;21.63;;
42110;SDS011;27766;52.174;5.456;2023-02-22T04:26:45;32.90;;;19.08;;
42110;SDS011;27766;52.174;5.456;2023-02-22T04:29:13;33.95;;;20.83;;
42110;SDS011;27766;52.174;5.456;2023-02-22T04:31:40;38.40;;;20.20;;
42110;SDS011;27766;52.174;5.456;2023-02-22T04:34:07;37.05;;;21.55;;
42110;SDS011;27766;52.174;5.456;2023-02-22T04:36:34;32.97;;;19.35;;
42110;SDS011;27766;52.174;5.456;2023-02-22T04:39:01;37.15;;;21.45;;
42110;SDS011;27766;52.174;5.456;2023-02-22T04:41:29;33.45;;;21.52;;
42110;SDS011;27766;52.174;5.456;2023-02-22T04:43:57;40.28;;;21.70;;
42110;SDS011;27766;52.174;5.456;2023-02-22T04:46:24;45.03;;;22.35;;
42110;SDS011;27766;52.174;5.456;2023-02-22T04:48:52;38.45;;;22.35;;
42110;SDS011;27766;52.174;5.456;2023-02-22T04:51:20;37.08;;;22.77;;
42110;SDS011;27766;52.174;5.456;2023-02-22T04:53:47;37.65;;;21.13;;
42110;SDS011;27766;52.174;5.456;2023-02-22T04:56:16;42.20;;;22.23;;
42110;SDS011;27766;52.174;5.456;2023-02-22T04:58:44;36.75;;;21.20;;
42110;SDS011;27766;52.174;5.456;2023-02-22T05:01:11;36.13;;;21.38;;
42110;SDS011;27766;52.174;5.456;2023-02-22T05:03:38;32.78;;;21.25;;
42110;SDS011;27766;52.174;5.456;2023-02-22T05:06:05;43.45;;;21.95;;
42110;SDS011;27766;52.174;5.456;2023-02-22T05:08:33;42.38;;;21.90;;
42110;SDS011;27766;52.174;5.456;2023-02-22T05:11:00;49.78;;;21.98;;
42110;SDS011;27766;52.174;5.456;2023-02-22T05:13:27;43.80;;;21.25;;
42110;SDS011;27766;52.174;5.456;2023-02-22T05:15:54;39.75;;;21.80;;
42110;SDS011;27766;52.174;5.456;2023-02-22T05:18:24;42.85;;;22.38;;
42110;SDS011;27766;52.174;5.456;2023-02-22T05:20:52;39.60;;;22.70;;
42110;SDS011;27766;52.174;5.456;2023-02-22T05:23:19;43.55;;;23.80;;
42110;SDS011;27766;52.174;5.456;2023-02-22T05:25:46;46.67;;;23.88;;
42110;SDS011;27766;52.174;5.456;2023-02-22T05:28:14;42.55;;;22.77;;
42110;SDS011;27766;52.174;5.456;2023-02-22T05:30:42;42.67;;;23.58;;
42110;SDS011;27766;52.174;5.456;2023-02-22T05:33:10;53.65;;;24.10;;
42110;SDS011;27766;52.174;5.456;2023-02-22T05:35:37;45.92;;;24.00;;
42110;SDS011;27766;52.174;5.456;2023-02-22T05:38:04;49.95;;;25.20;;
42110;SDS011;27766;52.174;5.456;2023-02-22T05:40:32;43.13;;;25.33;;
42110;SDS011;27766;52.174;5.456;2023-02-22T05:42:59;52.33;;;25.23;;
42110;SDS011;27766;52.174;5.456;2023-02-22T05:45:28;56.20;;;25.70;;
42110;SDS011;27766;52.174;5.456;2023-02-22T05:47:56;53.30;;;25.85;;
42110;SDS011;27766;52.174;5.456;2023-02-22T05:50:23;50.88;;;26.63;;
42110;SDS011;27766;52.174;5.456;2023-02-22T05:52:52;58.17;;;27.15;;
42110;SDS011;27766;52.174;5.456;2023-02-22T05:55:20;55.60;;;28.50;;
42110;SDS011;27766;52.174;5.456;2023-02-22T05:57:49;52.95;;;26.63;;
42110;SDS011;27766;52.174;5.456;2023-02-22T06:00:22;52.35;;;27.10;;
42110;SDS011;27766;52.174;5.456;2023-02-22T06:02:59;56.63;;;27.27;;
42110;SDS011;27766;52.174;5.456;2023-02-22T06:05:29;48.70;;;25.30;;
42110;SDS011;27766;52.174;5.456;2023-02-22T06:07:57;49.28;;;26.13;;
42110;SDS011;27766;52.174;5.456;2023-02-22T06:10:25;42.70;;;23.30;;
42110;SDS011;27766;52.174;5.456;2023-02-22T06:12:54;52.72;;;25.17;;
42110;SDS011;27766;52.174;5.456;2023-02-22T06:15:23;46.70;;;24.85;;
42110;SDS011;27766;52.174;5.456;2023-02-22T06:17:52;48.90;;;24.25;;
42110;SDS011;27766;52.174;5.456;2023-02-22T06:20:22;49.63;;;24.58;;
42110;SDS011;27766;52.174;5.456;2023-02-22T06:22:53;54.15;;;25.13;;
42110;SDS011;27766;52.174;5.456;2023-02-22T06:25:23;45.65;;;26.45;;
42110;SDS011;27766;52.174;5.456;2023-02-22T06:27:53;54.00;;;25.65;;
42110;SDS011;27766;52.174;5.456;2023-02-22T06:30:22;49.22;;;24.70;;
42110;SDS011;27766;52.174;5.456;2023-02-22T06:32:50;56.53;;;26.55;;
42110;SDS011;27766;52.174;5.456;2023-02-22T06:35:17;58.90;;;27.33;;
42110;SDS011;27766;52.174;5.456;2023-02-22T06:37:45;56.28;;;24.58;;
42110;SDS011;27766;52.174;5.456;2023-02-22T06:40:13;51.47;;;26.23;;
42110;SDS011;27766;52.174;5.456;2023-02-22T06:42:41;48.70;;;24.83;;
42110;SDS011;27766;52.174;5.456;2023-02-22T06:45:09;55.90;;;25.02;;
42110;SDS011;27766;52.174;5.456;2023-02-22T06:47:37;62.10;;;26.15;;
42110;SDS011;27766;52.174;5.456;2023-02-22T06:50:16;59.53;;;26.25;;
42110;SDS011;27766;52.174;5.456;2023-02-22T06:52:46;62.88;;;26.38;;
42110;SDS011;27766;52.174;5.456;2023-02-22T06:55:20;59.78;;;28.25;;
42110;SDS011;27766;52.174;5.456;2023-02-22T06:57:50;52.65;;;26.60;;
42110;SDS011;27766;52.174;5.456;2023-02-22T07:00:18;58.50;;;27.65;;
42110;SDS011;27766;52.174;5.456;2023-02-22T07:02:47;53.20;;;26.20;;
42110;SDS011;27766;52.174;5.456;2023-02-22T07:05:15;48.05;;;24.52;;
42110;SDS011;27766;52.174;5.456;2023-02-22T07:07:44;51.63;;;25.20;;
42110;SDS011;27766;52.174;5.456;2023-02-22T07:10:26;52.30;;;25.35;;
42110;SDS011;27766;52.174;5.456;2023-02-22T07:12:55;56.45;;;26.77;;
42110;SDS011;27766;52.174;5.456;2023-02-22T07:15:24;56.00;;;26.88;;
42110;SDS011;27766;52.174;5.456;2023-02-22T07:17:54;45.80;;;25.92;;
42110;SDS011;27766;52.174;5.456;2023-02-22T07:20:22;51.00;;;25.55;;
42110;SDS011;27766;52.174;5.456;2023-02-22T07:22:50;59.45;;;28.30;;
42110;SDS011;27766;52.174;5.456;2023-02-22T07:25:18;60.92;;;26.95;;
42110;SDS011;27766;52.174;5.456;2023-02-22T07:27:46;55.45;;;27.38;;
42110;SDS011;27766;52.174;5.456;2023-02-22T07:30:15;64.63;;;29.77;;
42110;SDS011;27766;52.174;5.456;2023-02-22T07:32:44;72.50;;;30.48;;
42110;SDS011;27766;52.174;5.456;2023-02-22T07:37:43;56.50;;;29.85;;
42110;SDS011;27766;52.174;5.456;2023-02-22T07:40:11;55.95;;;28.88;;
42110;SDS011;27766;52.174;5.456;2023-02-22T07:42:51;68.25;;;30.70;;
42110;SDS011;27766;52.174;5.456;2023-02-22T07:45:22;66.70;;;30.40;;
42110;SDS011;27766;52.174;5.456;2023-02-22T07:47:52;49.45;;;29.25;;
42110;SDS011;27766;52.174;5.456;2023-02-22T07:50:20;56.30;;;27.95;;
42110;SDS011;27766;52.174;5.456;2023-02-22T07:52:50;57.67;;;29.08;;
42110;SDS011;27766;52.174;5.456;2023-02-22T07:55:20;58.28;;;28.67;;
42110;SDS011;27766;52.174;5.456;2023-02-22T07:57:49;61.30;;;29.40;;
42110;SDS011;27766;52.174;5.456;2023-02-22T08:00:30;54.92;;;26.60;;
42110;SDS011;27766;52.174;5.456;2023-02-22T08:03:07;54.10;;;28.63;;
42110;SDS011;27766;52.174;5.456;2023-02-22T08:05:36;54.78;;;26.98;;
42110;SDS011;27766;52.174;5.456;2023-02-22T08:08:05;66.85;;;27.98;;
42110;SDS011;27766;52.174;5.456;2023-02-22T08:10:33;52.10;;;27.55;;
42110;SDS011;27766;52.174;5.456;2023-02-22T08:13:02;60.47;;;29.15;;
42110;SDS011;27766;52.174;5.456;2023-02-22T08:15:31;59.05;;;28.13;;
42110;SDS011;27766;52.174;5.456;2023-02-22T08:18:01;61.85;;;27.73;;
42110;SDS011;27766;52.174;5.456;2023-02-22T08:20:30;55.17;;;27.38;;
42110;SDS011;27766;52.174;5.456;2023-02-22T08:22:57;52.13;;;27.27;;
42110;SDS011;27766;52.174;5.456;2023-02-22T08:25:25;51.10;;;29.33;;
42110;SDS011;27766;52.174;5.456;2023-02-22T08:27:58;54.38;;;26.42;;
42110;SDS011;27766;52.174;5.456;2023-02-22T08:30:27;54.50;;;27.60;;
42110;SDS011;27766;52.174;5.456;2023-02-22T08:32:56;55.92;;;28.27;;
42110;SDS011;27766;52.174;5.456;2023-02-22T08:35:24;51.38;;;28.40;;
42110;SDS011;27766;52.174;5.456;2023-02-22T08:37:55;52.03;;;25.67;;
42110;SDS011;27766;52.174;5.456;2023-02-22T08:40:25;52.00;;;26.73;;
42110;SDS011;27766;52.174;5.456;2023-02-22T08:42:56;47.22;;;25.00;;
42110;SDS011;27766;52.174;5.456;2023-02-22T08:45:24;45.90;;;24.20;;
42110;SDS011;27766;52.174;5.456;2023-02-22T08:47:52;49.58;;;25.70;;
42110;SDS011;27766;52.174;5.456;2023-02-22T08:50:24;42.55;;;25.08;;
42110;SDS011;27766;52.174;5.456;2023-02-22T08:52:55;43.47;;;23.75;;
42110;SDS011;27766;52.174;5.456;2023-02-22T08:55:27;50.15;;;24.38;;
42110;SDS011;27766;52.174;5.456;2023-02-22T08:57:58;44.97;;;24.95;;
42110;SDS011;27766;52.174;5.456;2023-02-22T09:00:28;38.20;;;23.20;;
42110;SDS011;27766;52.174;5.456;2023-02-22T09:02:59;39.53;;;23.95;;
42110;SDS011;27766;52.174;5.456;2023-02-22T09:05:30;43.55;;;22.98;;
42110;SDS011;27766;52.174;5.456;2023-02-22T09:07:58;37.53;;;22.20;;
42110;SDS011;27766;52.174;5.456;2023-02-22T09:10:28;37.90;;;22.27;;
42110;SDS011;27766;52.174;5.456;2023-02-22T09:12:57;34.72;;;21.10;;
42110;SDS011;27766;52.174;5.456;2023-02-22T09:15:27;40.90;;;22.70;;
42110;SDS011;27766;52.174;5.456;2023-02-22T09:17:54;38.83;;;20.40;;
42110;SDS011;27766;52.174;5.456;2023-02-22T09:20:23;35.25;;;20.85;;
42110;SDS011;27766;52.174;5.456;2023-02-22T09:22:51;35.50;;;20.63;;
42110;SDS011;27766;52.174;5.456;2023-02-22T09:25:19;33.72;;;18.85;;
42110;SDS011;27766;52.174;5.456;2023-02-22T09:27:47;37.72;;;20.52;;
42110;SDS011;27766;52.174;5.456;2023-02-22T09:30:17;38.22;;;19.48;;
42110;SDS011;27766;52.174;5.456;2023-02-22T09:32:51;39.72;;;21.00;;
42110;SDS011;27766;52.174;5.456;2023-02-22T09:35:23;29.70;;;18.33;;
42110;SDS011;27766;52.174;5.456;2023-02-22T09:37:57;28.33;;;18.75;;
42110;SDS011;27766;52.174;5.456;2023-02-22T09:40:27;29.17;;;17.25;;
42110;SDS011;27766;52.174;5.456;2023-02-22T09:45:28;31.30;;;17.73;;
42110;SDS011;27766;52.174;5.456;2023-02-22T09:48:02;30.67;;;17.85;;
42110;SDS011;27766;52.174;5.456;2023-02-22T09:50:47;29.88;;;17.60;;
42110;SDS011;27766;52.174;5.456;2023-02-22T09:53:23;31.75;;;18.77;;
42110;SDS011;27766;52.174;5.456;2023-02-22T09:56:00;26.13;;;18.02;;
42110;SDS011;27766;52.174;5.456;2023-02-22T09:58:34;29.65;;;19.05;;
42110;SDS011;27766;52.174;5.456;2023-02-22T10:04:09;33.17;;;20.08;;
42110;SDS011;27766;52.174;5.456;2023-02-22T10:06:38;33.88;;;19.75;;
42110;SDS011;27766;52.174;5.456;2023-02-22T10:09:09;36.72;;;19.58;;
42110;SDS011;27766;52.174;5.456;2023-02-22T10:11:47;36.42;;;19.30;;
42110;SDS011;27766;52.174;5.456;2023-02-22T10:14:28;33.90;;;19.13;;
42110;SDS011;27766;52.174;5.456;2023-02-22T10:17:10;32.45;;;19.25;;
42110;SDS011;27766;52.174;5.456;2023-02-22T10:22:51;31.40;;;18.73;;
42110;SDS011;27766;52.174;5.456;2023-02-22T10:25:30;33.20;;;20.05;;
42110;SDS011;27766;52.174;5.456;2023-02-22T10:28:19;40.70;;;20.25;;
42110;SDS011;27766;52.174;5.456;2023-02-22T10:30:53;32.58;;;18.88;;
42110;SDS011;27766;52.174;5.456;2023-02-22T10:33:29;29.38;;;19.00;;
42110;SDS011;27766;52.174;5.456;2023-02-22T10:35:59;35.13;;;19.70;;
42110;SDS011;27766;52.174;5.456;2023-02-22T10:38:31;35.78;;;19.58;;
42110;SDS011;27766;52.174;5.456;2023-02-22T10:43:36;35.20;;;19.85;;
42110;SDS011;27766;52.174;5.456;2023-02-22T10:46:04;34.35;;;18.63;;
42110;SDS011;27766;52.174;5.456;2023-02-22T10:48:35;35.20;;;18.70;;
42110;SDS011;27766;52.174;5.456;2023-02-22T10:51:04;37.30;;;19.70;;
42110;SDS011;27766;52.174;5.456;2023-02-22T10:53:34;35.00;;;20.10;;
42110;SDS011;27766;52.174;5.456;2023-02-22T10:56:11;31.77;;;19.48;;
42110;SDS011;27766;52.174;5.456;2023-02-22T10:58:57;38.92;;;19.77;;
42110;SDS011;27766;52.174;5.456;2023-02-22T11:06:43;30.75;;;18.33;;
42110;SDS011;27766;52.174;5.456;2023-02-22T11:09:14;30.75;;;18.75;;
42110;SDS011;27766;52.174;5.456;2023-02-22T11:11:48;35.88;;;18.88;;
42110;SDS011;27766;52.174;5.456;2023-02-22T11:14:32;27.92;;;16.25;;
42110;SDS011;27766;52.174;5.456;2023-02-22T11:16:59;30.38;;;17.77;;
42110;SDS011;27766;52.174;5.456;2023-02-22T11:19:32;33.20;;;17.40;;
42110;SDS011;27766;52.174;5.456;2023-02-22T11:22:10;34.85;;;17.73;;
42110;SDS011;27766;52.174;5.456;2023-02-22T11:24:51;29.15;;;17.33;;
42110;SDS011;27766;52.174;5.456;2023-02-22T11:27:25;28.33;;;18.80;;
42110;SDS011;27766;52.174;5.456;2023-02-22T11:30:06;30.40;;;16.98;;
42110;SDS011;27766;52.174;5.456;2023-02-22T11:32:42;26.55;;;18.15;;
42110;SDS011;27766;52.174;5.456;2023-02-22T11:35:39;25.80;;;16.65;;
42110;SDS011;27766;52.174;5.456;2023-02-22T11:38:21;29.98;;;17.30;;
42110;SDS011;27766;52.174;5.456;2023-02-22T11:43:45;29.10;;;17.20;;
42110;SDS011;27766;52.174;5.456;2023-02-22T11:46:24;29.20;;;18.30;;
42110;SDS011;27766;52.174;5.456;2023-02-22T11:48:57;33.72;;;17.95;;
42110;SDS011;27766;52.174;5.456;2023-02-22T11:57:28;30.95;;;16.88;;
42110;SDS011;27766;52.174;5.456;2023-02-22T12:08:54;29.85;;;17.25;;
42110;SDS011;27766;52.174;5.456;2023-02-22T12:19:53;29.00;;;16.38;;
42110;SDS011;27766;52.174;5.456;2023-02-22T12:22:34;34.92;;;17.27;;
42110;SDS011;27766;52.174;5.456;2023-02-22T12:25:18;28.83;;;15.95;;
42110;SDS011;27766;52.174;5.456;2023-02-22T12:27:52;27.48;;;15.75;;
42110;SDS011;27766;52.174;5.456;2023-02-22T12:30:35;27.15;;;17.50;;
42110;SDS011;27766;52.174;5.456;2023-02-22T12:33:17;27.27;;;16.40;;
42110;SDS011;27766;52.174;5.456;2023-02-22T12:38:21;27.73;;;16.45;;
42110;SDS011;27766;52.174;5.456;2023-02-22T12:43:59;30.65;;;17.30;;
42110;SDS011;27766;52.174;5.456;2023-02-22T12:46:39;28.65;;;16.77;;
42110;SDS011;27766;52.174;5.456;2023-02-22T12:49:46;37.35;;;19.08;;
42110;SDS011;27766;52.174;5.456;2023-02-22T12:55:23;33.47;;;18.25;;
42110;SDS011;27766;52.174;5.456;2023-02-22T12:58:08;32.88;;;17.67;;
42110;SDS011;27766;52.174;5.456;2023-02-22T13:00:54;30.08;;;17.08;;
42110;SDS011;27766;52.174;5.456;2023-02-22T13:05:51;25.88;;;17.13;;
42110;SDS011;27766;52.174;5.456;2023-02-22T13:08:29;27.13;;;17.30;;
42110;SDS011;27766;52.174;5.456;2023-02-22T13:11:09;32.78;;;18.38;;
42110;SDS011;27766;52.174;5.456;2023-02-22T13:13:49;27.92;;;18.42;;
42110;SDS011;27766;52.174;5.456;2023-02-22T13:27:32;32.10;;;17.17;;
42110;SDS011;27766;52.174;5.456;2023-02-22T13:30:04;32.67;;;17.23;;
42110;SDS011;27766;52.174;5.456;2023-02-22T13:52:06;33.17;;;17.10;;
42110;SDS011;27766;52.174;5.456;2023-02-22T13:54:41;31.15;;;16.98;;
42110;SDS011;27766;52.174;5.456;2023-02-22T13:57:34;30.52;;;16.27;;
42110;SDS011;27766;52.174;5.456;2023-02-22T14:02:58;29.58;;;17.13;;
42110;SDS011;27766;52.174;5.456;2023-02-22T14:10:50;26.10;;;17.15;;
42110;SDS011;27766;52.174;5.456;2023-02-22T14:13:19;34.80;;;18.55;;
42110;SDS011;27766;52.174;5.456;2023-02-22T14:18:24;40.47;;;18.23;;
42110;SDS011;27766;52.174;5.456;2023-02-22T14:21:09;28.05;;;17.17;;
42110;SDS011;27766;52.174;5.456;2023-02-22T14:23:42;31.90;;;17.88;;
42110;SDS011;27766;52.174;5.456;2023-02-22T14:34:20;30.52;;;17.25;;
42110;SDS011;27766;52.174;5.456;2023-02-22T14:37:27;29.13;;;17.48;;
42110;SDS011;27766;52.174;5.456;2023-02-22T14:39:59;27.42;;;17.08;;
42110;SDS011;27766;52.174;5.456;2023-02-22T14:42:42;24.35;;;15.25;;
42110;SDS011;27766;52.174;5.456;2023-02-22T14:45:22;23.02;;;15.40;;
42110;SDS011;27766;52.174;5.456;2023-02-22T14:53:53;25.75;;;15.85;;
42110;SDS011;27766;52.174;5.456;2023-02-22T14:56:17;30.00;;;16.17;;
42110;SDS011;27766;52.174;5.456;2023-02-22T14:58:53;21.17;;;14.80;;
42110;SDS011;27766;52.174;5.456;2023-02-22T15:04:21;28.50;;;15.25;;
42110;SDS011;27766;52.174;5.456;2023-02-22T15:06:56;24.70;;;15.43;;
42110;SDS011;27766;52.174;5.456;2023-02-22T15:09:29;22.05;;;15.82;;
42110;SDS011;27766;52.174;5.456;2023-02-22T15:14:32;26.00;;;15.77;;
42110;SDS011;27766;52.174;5.456;2023-02-22T15:17:17;23.83;;;15.68;;
42110;SDS011;27766;52.174;5.456;2023-02-22T15:19:48;22.02;;;14.32;;
42110;SDS011;27766;52.174;5.456;2023-02-22T15:24:57;23.20;;;15.20;;
42110;SDS011;27766;52.174;5.456;2023-02-22T15:27:27;20.90;;;15.07;;
42110;SDS011;27766;52.174;5.456;2023-02-22T15:29:56;24.17;;;15.32;;
42110;SDS011;27766;52.174;5.456;2023-02-22T15:32:32;18.55;;;13.75;;
42110;SDS011;27766;52.174;5.456;2023-02-22T15:35:27;23.77;;;15.35;;
42110;SDS011;27766;52.174;5.456;2023-02-22T15:38:00;20.50;;;15.20;;
42110;SDS011;27766;52.174;5.456;2023-02-22T15:40:29;20.15;;;15.18;;
42110;SDS011;27766;52.174;5.456;2023-02-22T15:43:06;24.02;;;15.00;;
42110;SDS011;27766;52.174;5.456;2023-02-22T15:45:34;21.40;;;15.25;;
42110;SDS011;27766;52.174;5.456;2023-02-22T15:48:10;23.13;;;15.15;;
42110;SDS011;27766;52.174;5.456;2023-02-22T15:50:38;22.85;;;15.77;;
42110;SDS011;27766;52.174;5.456;2023-02-22T15:53:25;26.42;;;16.48;;
42110;SDS011;27766;52.174;5.456;2023-02-22T15:55:56;25.90;;;15.70;;
42110;SDS011;27766;52.174;5.456;2023-02-22T15:58:27;22.60;;;16.25;;
42110;SDS011;27766;52.174;5.456;2023-02-22T16:00:59;22.40;;;15.63;;
42110;SDS011;27766;52.174;5.456;2023-02-22T16:06:16;28.92;;;16.05;;
42110;SDS011;27766;52.174;5.456;2023-02-22T16:09:11;27.50;;;16.10;;
42110;SDS011;27766;52.174;5.456;2023-02-22T16:12:08;23.85;;;17.98;;
42110;SDS011;27766;52.174;5.456;2023-02-22T16:14:48;20.55;;;15.93;;
42110;SDS011;27766;52.174;5.456;2023-02-22T16:19:52;26.55;;;16.55;;
42110;SDS011;27766;52.174;5.456;2023-02-22T16:22:24;33.25;;;19.08;;
42110;SDS011;27766;52.174;5.456;2023-02-22T16:27:48;25.33;;;16.67;;
42110;SDS011;27766;52.174;5.456;2023-02-22T16:30:38;26.17;;;17.10;;
42110;SDS011;27766;52.174;5.456;2023-02-22T16:33:06;21.52;;;16.85;;
42110;SDS011;27766;52.174;5.456;2023-02-22T16:35:39;23.10;;;17.70;;
42110;SDS011;27766;52.174;5.456;2023-02-22T16:38:08;23.80;;;17.95;;
42110;SDS011;27766;52.174;5.456;2023-02-22T16:40:46;21.95;;;16.58;;
42110;SDS011;27766;52.174;5.456;2023-02-22T16:43:21;25.60;;;18.90;;
42110;SDS011;27766;52.174;5.456;2023-02-22T16:45:49;23.33;;;17.98;;
42110;SDS011;27766;52.174;5.456;2023-02-22T16:48:19;24.33;;;18.23;;
42110;SDS011;27766;52.174;5.456;2023-02-22T16:50:49;23.80;;;17.60;;
42110;SDS011;27766;52.174;5.456;2023-02-22T16:53:18;24.55;;;19.35;;
42110;SDS011;27766;52.174;5.456;2023-02-22T16:55:47;26.92;;;18.15;;
42110;SDS011;27766;52.174;5.456;2023-02-22T16:58:16;29.27;;;19.75;;
42110;SDS011;27766;52.174;5.456;2023-02-22T17:00:44;27.98;;;20.30;;
42110;SDS011;27766;52.174;5.456;2023-02-22T17:03:15;30.65;;;19.92;;
42110;SDS011;27766;52.174;5.456;2023-02-22T17:05:44;28.95;;;20.63;;
42110;SDS011;27766;52.174;5.456;2023-02-22T17:08:11;33.70;;;22.30;;
42110;SDS011;27766;52.174;5.456;2023-02-22T17:10:38;35.08;;;21.58;;
42110;SDS011;27766;52.174;5.456;2023-02-22T17:13:06;29.65;;;21.23;;
42110;SDS011;27766;52.174;5.456;2023-02-22T17:15:48;31.45;;;21.75;;
42110;SDS011;27766;52.174;5.456;2023-02-22T17:18:16;31.85;;;22.63;;
42110;SDS011;27766;52.174;5.456;2023-02-22T17:20:49;30.77;;;20.48;;
42110;SDS011;27766;52.174;5.456;2023-02-22T17:23:17;36.28;;;21.35;;
42110;SDS011;27766;52.174;5.456;2023-02-22T17:25:52;35.75;;;22.75;;
42110;SDS011;27766;52.174;5.456;2023-02-22T17:28:20;29.40;;;21.50;;
42110;SDS011;27766;52.174;5.456;2023-02-22T17:30:49;32.83;;;22.13;;